sensor_id;sensor_type;location;lat;lon;timestamp;P1;durP1;ratioP1;P2;durP2;ratioP2
14078;SDS011;7115;50.150;8.568;2022-08-01T00:00:03;1.10;;;0.87;;
14078;SDS011;7115;50.150;8.568;2022-08-01T00:02:35;1.47;;;0.77;;
14078;SDS011;7115;50.150;8.568;2022-08-01T00:05:04;1.80;;;0.90;;
14078;SDS011;7115;50.150;8.568;2022-08-01T00:07:32;1.10;;;0.60;;
14078;SDS011;7115;50.150;8.568;2022-08-01T00:10:00;2.80;;;0.80;;
14078;SDS011;7115;50.150;8.568;2022-08-01T00:12:28;1.00;;;0.70;;
14078;SDS011;7115;50.150;8.568;2022-08-01T00:14:54;1.23;;;0.90;;
14078;SDS011;7115;50.150;8.568;2022-08-01T00:17:21;1.40;;;0.90;;
14078;SDS011;7115;50.150;8.568;2022-08-01T00:19:48;0.67;;;0.60;;
14078;SDS011;7115;50.150;8.568;2022-08-01T00:22:14;0.90;;;0.77;;
14078;SDS011;7115;50.150;8.568;2022-08-01T00:24:41;0.80;;;0.60;;
14078;SDS011;7115;50.150;8.568;2022-08-01T00:27:08;1.03;;;0.70;;
14078;SDS011;7115;50.150;8.568;2022-08-01T00:29:35;4.73;;;1.97;;
14078;SDS011;7115;50.150;8.568;2022-08-01T00:32:21;2.50;;;1.23;;
14078;SDS011;7115;50.150;8.568;2022-08-01T00:34:49;0.97;;;0.83;;
14078;SDS011;7115;50.150;8.568;2022-08-01T00:37:27;0.97;;;0.67;;
14078;SDS011;7115;50.150;8.568;2022-08-01T00:39:55;2.50;;;1.23;;
14078;SDS011;7115;50.150;8.568;2022-08-01T00:42:22;2.93;;;0.70;;
14078;SDS011;7115;50.150;8.568;2022-08-01T00:44:48;1.33;;;0.90;;
14078;SDS011;7115;50.150;8.568;2022-08-01T00:47:15;0.80;;;0.80;;
14078;SDS011;7115;50.150;8.568;2022-08-01T00:49:42;1.23;;;0.80;;
14078;SDS011;7115;50.150;8.568;2022-08-01T00:52:09;2.20;;;0.90;;
14078;SDS011;7115;50.150;8.568;2022-08-01T00:54:36;2.30;;;1.03;;
14078;SDS011;7115;50.150;8.568;2022-08-01T00:57:03;2.87;;;0.97;;
14078;SDS011;7115;50.150;8.568;2022-08-01T00:59:35;0.80;;;0.73;;
14078;SDS011;7115;50.150;8.568;2022-08-01T01:02:05;1.23;;;0.90;;
14078;SDS011;7115;50.150;8.568;2022-08-01T01:04:41;1.83;;;1.10;;
14078;SDS011;7115;50.150;8.568;2022-08-01T01:10:16;1.00;;;0.90;;
14078;SDS011;7115;50.150;8.568;2022-08-01T01:12:54;1.70;;;1.00;;
14078;SDS011;7115;50.150;8.568;2022-08-01T01:15:33;1.90;;;0.93;;
14078;SDS011;7115;50.150;8.568;2022-08-01T01:21:07;2.40;;;1.10;;
14078;SDS011;7115;50.150;8.568;2022-08-01T01:27:01;3.60;;;1.00;;
14078;SDS011;7115;50.150;8.568;2022-08-01T01:29:41;1.37;;;0.67;;
14078;SDS011;7115;50.150;8.568;2022-08-01T01:35:02;2.93;;;0.90;;
14078;SDS011;7115;50.150;8.568;2022-08-01T01:37:35;1.33;;;0.87;;
14078;SDS011;7115;50.150;8.568;2022-08-01T01:40:05;1.37;;;0.83;;
14078;SDS011;7115;50.150;8.568;2022-08-01T01:42:35;2.53;;;1.00;;
14078;SDS011;7115;50.150;8.568;2022-08-01T01:45:04;1.07;;;0.80;;
14078;SDS011;7115;50.150;8.568;2022-08-01T01:47:32;0.97;;;0.87;;
14078;SDS011;7115;50.150;8.568;2022-08-01T01:50:00;1.20;;;1.00;;
14078;SDS011;7115;50.150;8.568;2022-08-01T01:52:29;1.47;;;0.97;;
14078;SDS011;7115;50.150;8.568;2022-08-01T01:54:59;4.00;;;0.90;;
14078;SDS011;7115;50.150;8.568;2022-08-01T01:57:28;2.60;;;0.90;;
14078;SDS011;7115;50.150;8.568;2022-08-01T01:59:57;1.83;;;0.93;;
14078;SDS011;7115;50.150;8.568;2022-08-01T02:02:25;1.80;;;0.90;;
14078;SDS011;7115;50.150;8.568;2022-08-01T02:04:54;1.50;;;0.80;;
14078;SDS011;7115;50.150;8.568;2022-08-01T02:07:24;2.20;;;1.20;;
14078;SDS011;7115;50.150;8.568;2022-08-01T02:09:52;2.37;;;1.00;;
14078;SDS011;7115;50.150;8.568;2022-08-01T02:12:20;2.93;;;1.17;;
14078;SDS011;7115;50.150;8.568;2022-08-01T02:14:50;3.23;;;0.90;;
14078;SDS011;7115;50.150;8.568;2022-08-01T02:17:21;1.07;;;0.97;;
14078;SDS011;7115;50.150;8.568;2022-08-01T02:19:50;2.07;;;0.90;;
14078;SDS011;7115;50.150;8.568;2022-08-01T02:22:19;2.70;;;1.47;;
14078;SDS011;7115;50.150;8.568;2022-08-01T02:24:56;2.10;;;1.00;;
14078;SDS011;7115;50.150;8.568;2022-08-01T02:27:39;2.17;;;0.90;;
14078;SDS011;7115;50.150;8.568;2022-08-01T02:30:10;1.93;;;0.87;;
14078;SDS011;7115;50.150;8.568;2022-08-01T02:32:46;2.30;;;0.90;;
14078;SDS011;7115;50.150;8.568;2022-08-01T02:35:25;3.33;;;0.90;;
14078;SDS011;7115;50.150;8.568;2022-08-01T02:37:55;0.80;;;0.80;;
14078;SDS011;7115;50.150;8.568;2022-08-01T02:40:23;2.03;;;1.03;;
14078;SDS011;7115;50.150;8.568;2022-08-01T02:42:52;1.47;;;1.00;;
14078;SDS011;7115;50.150;8.568;2022-08-01T02:45:22;0.97;;;0.90;;
14078;SDS011;7115;50.150;8.568;2022-08-01T02:47:52;1.23;;;0.73;;
14078;SDS011;7115;50.150;8.568;2022-08-01T02:50:23;1.07;;;0.77;;
14078;SDS011;7115;50.150;8.568;2022-08-01T02:52:52;1.30;;;0.87;;
14078;SDS011;7115;50.150;8.568;2022-08-01T02:55:21;2.70;;;1.00;;
14078;SDS011;7115;50.150;8.568;2022-08-01T02:57:49;2.23;;;0.90;;
14078;SDS011;7115;50.150;8.568;2022-08-01T03:00:25;2.87;;;1.00;;
14078;SDS011;7115;50.150;8.568;2022-08-01T03:02:53;0.80;;;0.80;;
14078;SDS011;7115;50.150;8.568;2022-08-01T03:05:23;2.80;;;1.00;;
14078;SDS011;7115;50.150;8.568;2022-08-01T03:07:52;2.00;;;0.90;;
14078;SDS011;7115;50.150;8.568;2022-08-01T03:10:28;1.37;;;1.00;;
14078;SDS011;7115;50.150;8.568;2022-08-01T03:12:57;1.47;;;1.10;;
14078;SDS011;7115;50.150;8.568;2022-08-01T03:15:26;2.03;;;0.90;;
14078;SDS011;7115;50.150;8.568;2022-08-01T03:17:56;2.03;;;1.00;;
14078;SDS011;7115;50.150;8.568;2022-08-01T03:20:25;1.70;;;1.10;;
14078;SDS011;7115;50.150;8.568;2022-08-01T03:22:56;2.27;;;0.90;;
14078;SDS011;7115;50.150;8.568;2022-08-01T03:25:25;1.47;;;1.00;;
14078;SDS011;7115;50.150;8.568;2022-08-01T03:27:54;1.87;;;1.00;;
14078;SDS011;7115;50.150;8.568;2022-08-01T03:30:24;1.53;;;0.87;;
14078;SDS011;7115;50.150;8.568;2022-08-01T03:32:52;2.73;;;0.90;;
14078;SDS011;7115;50.150;8.568;2022-08-01T03:35:20;1.90;;;1.10;;
14078;SDS011;7115;50.150;8.568;2022-08-01T03:37:50;2.23;;;1.00;;
14078;SDS011;7115;50.150;8.568;2022-08-01T03:40:41;1.90;;;1.10;;
14078;SDS011;7115;50.150;8.568;2022-08-01T03:43:19;1.67;;;1.07;;
14078;SDS011;7115;50.150;8.568;2022-08-01T03:45:58;2.83;;;1.00;;
14078;SDS011;7115;50.150;8.568;2022-08-01T03:48:29;1.43;;;0.90;;
14078;SDS011;7115;50.150;8.568;2022-08-01T03:51:01;2.37;;;1.23;;
14078;SDS011;7115;50.150;8.568;2022-08-01T03:53:30;3.47;;;1.03;;
14078;SDS011;7115;50.150;8.568;2022-08-01T03:56:00;2.93;;;1.00;;
14078;SDS011;7115;50.150;8.568;2022-08-01T03:58:29;1.63;;;1.30;;
14078;SDS011;7115;50.150;8.568;2022-08-01T04:00:56;1.40;;;1.00;;
14078;SDS011;7115;50.150;8.568;2022-08-01T04:03:24;1.23;;;1.00;;
14078;SDS011;7115;50.150;8.568;2022-08-01T04:05:51;1.80;;;1.10;;
14078;SDS011;7115;50.150;8.568;2022-08-01T04:08:18;3.10;;;1.10;;
14078;SDS011;7115;50.150;8.568;2022-08-01T04:10:45;2.17;;;1.03;;
14078;SDS011;7115;50.150;8.568;2022-08-01T04:13:15;1.73;;;1.00;;
14078;SDS011;7115;50.150;8.568;2022-08-01T04:15:42;3.00;;;1.33;;
14078;SDS011;7115;50.150;8.568;2022-08-01T04:18:09;3.83;;;1.10;;
14078;SDS011;7115;50.150;8.568;2022-08-01T04:20:36;2.20;;;1.10;;
14078;SDS011;7115;50.150;8.568;2022-08-01T04:23:03;2.80;;;1.10;;
14078;SDS011;7115;50.150;8.568;2022-08-01T04:25:32;2.73;;;1.37;;
14078;SDS011;7115;50.150;8.568;2022-08-01T04:28:01;1.20;;;1.00;;
14078;SDS011;7115;50.150;8.568;2022-08-01T04:30:31;3.30;;;1.40;;
14078;SDS011;7115;50.150;8.568;2022-08-01T04:33:01;3.37;;;1.17;;
14078;SDS011;7115;50.150;8.568;2022-08-01T04:35:31;8.07;;;1.20;;
14078;SDS011;7115;50.150;8.568;2022-08-01T04:38:21;1.37;;;1.17;;
14078;SDS011;7115;50.150;8.568;2022-08-01T04:40:50;3.17;;;1.40;;
14078;SDS011;7115;50.150;8.568;2022-08-01T04:43:18;2.93;;;1.00;;
14078;SDS011;7115;50.150;8.568;2022-08-01T04:45:46;1.57;;;1.23;;
14078;SDS011;7115;50.150;8.568;2022-08-01T04:48:15;2.43;;;1.17;;
14078;SDS011;7115;50.150;8.568;2022-08-01T04:50:47;1.13;;;1.03;;
14078;SDS011;7115;50.150;8.568;2022-08-01T04:53:15;3.73;;;1.27;;
14078;SDS011;7115;50.150;8.568;2022-08-01T04:55:44;2.70;;;1.20;;
14078;SDS011;7115;50.150;8.568;2022-08-01T04:58:12;2.80;;;1.20;;
14078;SDS011;7115;50.150;8.568;2022-08-01T05:00:43;3.73;;;1.40;;
14078;SDS011;7115;50.150;8.568;2022-08-01T05:03:11;1.13;;;1.00;;
14078;SDS011;7115;50.150;8.568;2022-08-01T05:05:37;3.70;;;1.10;;
14078;SDS011;7115;50.150;8.568;2022-08-01T05:08:04;3.77;;;1.10;;
14078;SDS011;7115;50.150;8.568;2022-08-01T05:10:32;1.80;;;1.00;;
14078;SDS011;7115;50.150;8.568;2022-08-01T05:12:58;2.40;;;0.90;;
14078;SDS011;7115;50.150;8.568;2022-08-01T05:15:25;1.93;;;1.00;;
14078;SDS011;7115;50.150;8.568;2022-08-01T05:17:53;3.70;;;1.30;;
14078;SDS011;7115;50.150;8.568;2022-08-01T05:20:20;1.53;;;1.10;;
14078;SDS011;7115;50.150;8.568;2022-08-01T05:22:47;3.10;;;1.40;;
14078;SDS011;7115;50.150;8.568;2022-08-01T05:25:14;1.33;;;1.10;;
14078;SDS011;7115;50.150;8.568;2022-08-01T05:27:45;1.40;;;1.20;;
14078;SDS011;7115;50.150;8.568;2022-08-01T05:30:16;2.40;;;1.10;;
14078;SDS011;7115;50.150;8.568;2022-08-01T05:32:42;3.47;;;1.30;;
14078;SDS011;7115;50.150;8.568;2022-08-01T05:35:09;3.00;;;1.40;;
14078;SDS011;7115;50.150;8.568;2022-08-01T05:37:36;5.60;;;1.47;;
14078;SDS011;7115;50.150;8.568;2022-08-01T05:40:03;1.80;;;0.93;;
14078;SDS011;7115;50.150;8.568;2022-08-01T05:42:31;1.57;;;1.40;;
14078;SDS011;7115;50.150;8.568;2022-08-01T05:44:57;2.10;;;1.23;;
14078;SDS011;7115;50.150;8.568;2022-08-01T05:47:24;2.17;;;1.30;;
14078;SDS011;7115;50.150;8.568;2022-08-01T05:49:51;1.80;;;1.03;;
14078;SDS011;7115;50.150;8.568;2022-08-01T05:52:18;3.30;;;1.10;;
14078;SDS011;7115;50.150;8.568;2022-08-01T05:54:44;4.10;;;2.40;;
14078;SDS011;7115;50.150;8.568;2022-08-01T05:57:11;1.93;;;1.10;;
14078;SDS011;7115;50.150;8.568;2022-08-01T05:59:40;1.87;;;1.20;;
14078;SDS011;7115;50.150;8.568;2022-08-01T06:02:07;4.10;;;1.70;;
14078;SDS011;7115;50.150;8.568;2022-08-01T06:04:34;1.30;;;1.20;;
14078;SDS011;7115;50.150;8.568;2022-08-01T06:07:01;1.70;;;1.50;;
14078;SDS011;7115;50.150;8.568;2022-08-01T06:09:28;2.60;;;1.30;;
14078;SDS011;7115;50.150;8.568;2022-08-01T06:11:56;3.03;;;1.30;;
14078;SDS011;7115;50.150;8.568;2022-08-01T06:14:23;3.07;;;1.40;;
14078;SDS011;7115;50.150;8.568;2022-08-01T06:16:50;1.77;;;1.43;;
14078;SDS011;7115;50.150;8.568;2022-08-01T06:19:17;2.10;;;1.83;;
14078;SDS011;7115;50.150;8.568;2022-08-01T06:21:43;3.37;;;2.00;;
14078;SDS011;7115;50.150;8.568;2022-08-01T06:24:10;3.43;;;2.07;;
14078;SDS011;7115;50.150;8.568;2022-08-01T06:26:37;2.70;;;2.10;;
14078;SDS011;7115;50.150;8.568;2022-08-01T06:29:04;3.07;;;2.10;;
14078;SDS011;7115;50.150;8.568;2022-08-01T06:31:31;3.33;;;1.83;;
14078;SDS011;7115;50.150;8.568;2022-08-01T06:33:59;2.23;;;1.90;;
14078;SDS011;7115;50.150;8.568;2022-08-01T06:36:26;3.10;;;1.93;;
14078;SDS011;7115;50.150;8.568;2022-08-01T06:38:53;2.70;;;2.20;;
14078;SDS011;7115;50.150;8.568;2022-08-01T06:41:19;3.63;;;1.80;;
14078;SDS011;7115;50.150;8.568;2022-08-01T06:43:46;2.87;;;1.83;;
14078;SDS011;7115;50.150;8.568;2022-08-01T06:46:13;4.63;;;2.73;;
14078;SDS011;7115;50.150;8.568;2022-08-01T06:48:40;3.87;;;3.03;;
14078;SDS011;7115;50.150;8.568;2022-08-01T06:51:06;3.90;;;2.37;;
14078;SDS011;7115;50.150;8.568;2022-08-01T06:53:39;2.57;;;2.30;;
14078;SDS011;7115;50.150;8.568;2022-08-01T06:56:08;3.90;;;2.50;;
14078;SDS011;7115;50.150;8.568;2022-08-01T06:58:35;3.40;;;2.23;;
14078;SDS011;7115;50.150;8.568;2022-08-01T07:01:03;3.20;;;2.57;;
14078;SDS011;7115;50.150;8.568;2022-08-01T07:03:33;6.07;;;2.83;;
14078;SDS011;7115;50.150;8.568;2022-08-01T07:06:20;4.80;;;2.77;;
14078;SDS011;7115;50.150;8.568;2022-08-01T07:08:51;3.27;;;2.83;;
14078;SDS011;7115;50.150;8.568;2022-08-01T07:11:19;3.73;;;2.70;;
14078;SDS011;7115;50.150;8.568;2022-08-01T07:13:47;4.40;;;3.00;;
14078;SDS011;7115;50.150;8.568;2022-08-01T07:16:14;3.87;;;2.90;;
14078;SDS011;7115;50.150;8.568;2022-08-01T07:18:42;4.77;;;3.30;;
14078;SDS011;7115;50.150;8.568;2022-08-01T07:21:09;5.40;;;3.50;;
14078;SDS011;7115;50.150;8.568;2022-08-01T07:23:56;4.53;;;3.50;;
14078;SDS011;7115;50.150;8.568;2022-08-01T07:26:24;4.87;;;3.73;;
14078;SDS011;7115;50.150;8.568;2022-08-01T07:28:50;4.83;;;3.97;;
14078;SDS011;7115;50.150;8.568;2022-08-01T07:31:17;3.47;;;3.13;;
14078;SDS011;7115;50.150;8.568;2022-08-01T07:33:44;4.27;;;3.60;;
14078;SDS011;7115;50.150;8.568;2022-08-01T07:36:15;6.07;;;3.40;;
14078;SDS011;7115;50.150;8.568;2022-08-01T07:38:42;3.70;;;3.17;;
14078;SDS011;7115;50.150;8.568;2022-08-01T07:41:09;5.27;;;3.30;;
14078;SDS011;7115;50.150;8.568;2022-08-01T07:43:36;4.83;;;3.13;;
14078;SDS011;7115;50.150;8.568;2022-08-01T07:46:03;4.10;;;3.13;;
14078;SDS011;7115;50.150;8.568;2022-08-01T07:48:31;5.23;;;3.13;;
14078;SDS011;7115;50.150;8.568;2022-08-01T07:50:58;6.83;;;2.77;;
14078;SDS011;7115;50.150;8.568;2022-08-01T07:53:25;6.73;;;3.30;;
14078;SDS011;7115;50.150;8.568;2022-08-01T07:55:52;3.47;;;3.13;;
14078;SDS011;7115;50.150;8.568;2022-08-01T07:58:19;5.23;;;3.27;;
14078;SDS011;7115;50.150;8.568;2022-08-01T08:00:45;4.07;;;3.13;;
14078;SDS011;7115;50.150;8.568;2022-08-01T08:03:12;4.37;;;3.37;;
14078;SDS011;7115;50.150;8.568;2022-08-01T08:05:39;3.80;;;3.50;;
14078;SDS011;7115;50.150;8.568;2022-08-01T08:08:25;3.90;;;3.57;;
14078;SDS011;7115;50.150;8.568;2022-08-01T08:10:52;4.57;;;3.67;;
14078;SDS011;7115;50.150;8.568;2022-08-01T08:13:19;5.43;;;3.50;;
14078;SDS011;7115;50.150;8.568;2022-08-01T08:15:46;6.70;;;3.37;;
14078;SDS011;7115;50.150;8.568;2022-08-01T08:18:14;6.43;;;3.60;;
14078;SDS011;7115;50.150;8.568;2022-08-01T08:20:41;4.20;;;3.40;;
14078;SDS011;7115;50.150;8.568;2022-08-01T08:23:08;4.67;;;4.17;;
14078;SDS011;7115;50.150;8.568;2022-08-01T08:26:09;4.40;;;3.67;;
14078;SDS011;7115;50.150;8.568;2022-08-01T08:28:36;5.13;;;3.50;;
14078;SDS011;7115;50.150;8.568;2022-08-01T08:31:05;4.00;;;3.67;;
14078;SDS011;7115;50.150;8.568;2022-08-01T08:33:53;6.67;;;3.53;;
14078;SDS011;7115;50.150;8.568;2022-08-01T08:36:20;5.67;;;3.23;;
14078;SDS011;7115;50.150;8.568;2022-08-01T08:38:56;4.73;;;3.47;;
14078;SDS011;7115;50.150;8.568;2022-08-01T08:41:22;4.97;;;3.17;;
14078;SDS011;7115;50.150;8.568;2022-08-01T08:43:49;4.63;;;3.47;;
14078;SDS011;7115;50.150;8.568;2022-08-01T08:46:16;3.73;;;3.07;;
14078;SDS011;7115;50.150;8.568;2022-08-01T08:48:53;4.27;;;3.23;;
14078;SDS011;7115;50.150;8.568;2022-08-01T08:51:21;4.10;;;3.10;;
14078;SDS011;7115;50.150;8.568;2022-08-01T08:53:53;4.83;;;3.33;;
14078;SDS011;7115;50.150;8.568;2022-08-01T08:56:23;4.67;;;2.90;;
14078;SDS011;7115;50.150;8.568;2022-08-01T08:58:53;3.67;;;3.20;;
14078;SDS011;7115;50.150;8.568;2022-08-01T09:01:20;3.17;;;2.87;;
14078;SDS011;7115;50.150;8.568;2022-08-01T09:03:48;4.27;;;3.60;;
14078;SDS011;7115;50.150;8.568;2022-08-01T09:06:14;7.63;;;3.50;;
14078;SDS011;7115;50.150;8.568;2022-08-01T09:08:41;3.57;;;3.20;;
14078;SDS011;7115;50.150;8.568;2022-08-01T09:11:08;6.87;;;3.80;;
14078;SDS011;7115;50.150;8.568;2022-08-01T09:13:35;3.83;;;3.23;;
14078;SDS011;7115;50.150;8.568;2022-08-01T09:16:15;4.13;;;3.50;;
14078;SDS011;7115;50.150;8.568;2022-08-01T09:18:43;6.47;;;3.40;;
14078;SDS011;7115;50.150;8.568;2022-08-01T09:21:19;3.33;;;2.80;;
14078;SDS011;7115;50.150;8.568;2022-08-01T09:23:53;4.87;;;3.37;;
14078;SDS011;7115;50.150;8.568;2022-08-01T09:26:28;3.90;;;2.87;;
14078;SDS011;7115;50.150;8.568;2022-08-01T09:29:01;5.10;;;3.43;;
14078;SDS011;7115;50.150;8.568;2022-08-01T09:31:39;2.77;;;2.50;;
14078;SDS011;7115;50.150;8.568;2022-08-01T09:34:13;4.13;;;2.60;;
14078;SDS011;7115;50.150;8.568;2022-08-01T09:36:52;2.90;;;2.60;;
14078;SDS011;7115;50.150;8.568;2022-08-01T09:39:24;3.10;;;2.80;;
14078;SDS011;7115;50.150;8.568;2022-08-01T09:42:22;5.10;;;2.57;;
14078;SDS011;7115;50.150;8.568;2022-08-01T09:44:54;2.60;;;2.30;;
14078;SDS011;7115;50.150;8.568;2022-08-01T09:47:21;3.40;;;2.50;;
14078;SDS011;7115;50.150;8.568;2022-08-01T09:50:04;8.67;;;2.37;;
14078;SDS011;7115;50.150;8.568;2022-08-01T09:52:36;4.93;;;2.67;;
14078;SDS011;7115;50.150;8.568;2022-08-01T09:55:06;3.40;;;2.40;;
14078;SDS011;7115;50.150;8.568;2022-08-01T09:57:33;3.13;;;2.50;;
14078;SDS011;7115;50.150;8.568;2022-08-01T10:00:01;2.93;;;2.63;;
14078;SDS011;7115;50.150;8.568;2022-08-01T10:05:02;3.13;;;2.60;;
14078;SDS011;7115;50.150;8.568;2022-08-01T10:07:34;3.83;;;2.40;;
14078;SDS011;7115;50.150;8.568;2022-08-01T10:10:13;2.80;;;2.30;;
14078;SDS011;7115;50.150;8.568;2022-08-01T10:12:42;3.70;;;2.70;;
14078;SDS011;7115;50.150;8.568;2022-08-01T10:15:12;2.90;;;2.27;;
14078;SDS011;7115;50.150;8.568;2022-08-01T10:18:02;3.60;;;2.90;;
14078;SDS011;7115;50.150;8.568;2022-08-01T10:20:46;5.00;;;2.70;;
14078;SDS011;7115;50.150;8.568;2022-08-01T10:23:13;2.60;;;2.40;;
14078;SDS011;7115;50.150;8.568;2022-08-01T10:25:41;4.73;;;2.90;;
14078;SDS011;7115;50.150;8.568;2022-08-01T10:28:16;5.53;;;2.73;;
14078;SDS011;7115;50.150;8.568;2022-08-01T10:30:49;3.20;;;2.90;;
14078;SDS011;7115;50.150;8.568;2022-08-01T10:33:18;3.67;;;3.27;;
14078;SDS011;7115;50.150;8.568;2022-08-01T10:36:08;3.03;;;2.73;;
14078;SDS011;7115;50.150;8.568;2022-08-01T10:38:36;2.60;;;2.40;;
14078;SDS011;7115;50.150;8.568;2022-08-01T10:41:04;4.00;;;2.90;;
14078;SDS011;7115;50.150;8.568;2022-08-01T10:43:35;2.93;;;2.30;;
14078;SDS011;7115;50.150;8.568;2022-08-01T10:46:03;2.50;;;2.20;;
14078;SDS011;7115;50.150;8.568;2022-08-01T10:51:02;3.23;;;2.27;;
14078;SDS011;7115;50.150;8.568;2022-08-01T10:53:54;2.43;;;2.23;;
14078;SDS011;7115;50.150;8.568;2022-08-01T10:56:25;3.70;;;2.60;;
14078;SDS011;7115;50.150;8.568;2022-08-01T10:59:14;3.30;;;2.70;;
14078;SDS011;7115;50.150;8.568;2022-08-01T11:02:09;3.23;;;2.63;;
14078;SDS011;7115;50.150;8.568;2022-08-01T11:04:54;3.23;;;2.70;;
14078;SDS011;7115;50.150;8.568;2022-08-01T11:07:42;3.40;;;2.60;;
14078;SDS011;7115;50.150;8.568;2022-08-01T11:12:55;3.10;;;2.40;;
14078;SDS011;7115;50.150;8.568;2022-08-01T11:15:22;2.40;;;2.20;;
14078;SDS011;7115;50.150;8.568;2022-08-01T11:17:57;2.40;;;2.20;;
14078;SDS011;7115;50.150;8.568;2022-08-01T11:20:27;2.60;;;2.30;;
14078;SDS011;7115;50.150;8.568;2022-08-01T11:28:24;2.70;;;1.90;;
14078;SDS011;7115;50.150;8.568;2022-08-01T11:41:27;1.97;;;1.87;;
14078;SDS011;7115;50.150;8.568;2022-08-01T11:52:08;3.13;;;2.30;;
14078;SDS011;7115;50.150;8.568;2022-08-01T11:54:56;2.17;;;1.97;;
14078;SDS011;7115;50.150;8.568;2022-08-01T11:57:30;2.30;;;2.10;;
14078;SDS011;7115;50.150;8.568;2022-08-01T12:00:18;3.03;;;1.90;;
14078;SDS011;7115;50.150;8.568;2022-08-01T12:02:46;3.57;;;1.90;;
14078;SDS011;7115;50.150;8.568;2022-08-01T12:05:24;2.20;;;1.73;;
14078;SDS011;7115;50.150;8.568;2022-08-01T12:07:53;2.10;;;1.90;;
14078;SDS011;7115;50.150;8.568;2022-08-01T12:10:25;3.17;;;1.60;;
14078;SDS011;7115;50.150;8.568;2022-08-01T12:12:59;1.77;;;1.67;;
14078;SDS011;7115;50.150;8.568;2022-08-01T12:15:29;3.43;;;2.00;;
14078;SDS011;7115;50.150;8.568;2022-08-01T12:18:04;1.90;;;1.80;;
14078;SDS011;7115;50.150;8.568;2022-08-01T12:20:33;2.03;;;1.83;;
14078;SDS011;7115;50.150;8.568;2022-08-01T12:23:07;2.90;;;1.90;;
14078;SDS011;7115;50.150;8.568;2022-08-01T12:25:35;2.50;;;1.80;;
14078;SDS011;7115;50.150;8.568;2022-08-01T12:28:09;1.67;;;1.57;;
14078;SDS011;7115;50.150;8.568;2022-08-01T12:30:39;2.60;;;2.00;;
14078;SDS011;7115;50.150;8.568;2022-08-01T12:33:07;1.60;;;1.50;;
14078;SDS011;7115;50.150;8.568;2022-08-01T12:35:35;3.13;;;1.90;;
14078;SDS011;7115;50.150;8.568;2022-08-01T12:38:04;1.70;;;1.60;;
14078;SDS011;7115;50.150;8.568;2022-08-01T12:40:34;2.70;;;1.70;;
14078;SDS011;7115;50.150;8.568;2022-08-01T12:43:06;2.03;;;1.60;;
14078;SDS011;7115;50.150;8.568;2022-08-01T12:45:44;1.77;;;1.67;;
14078;SDS011;7115;50.150;8.568;2022-08-01T12:48:22;2.60;;;1.67;;
14078;SDS011;7115;50.150;8.568;2022-08-01T12:50:50;1.97;;;1.60;;
14078;SDS011;7115;50.150;8.568;2022-08-01T12:53:23;1.90;;;1.57;;
14078;SDS011;7115;50.150;8.568;2022-08-01T12:55:53;2.13;;;1.80;;
14078;SDS011;7115;50.150;8.568;2022-08-01T12:58:30;1.50;;;1.40;;
14078;SDS011;7115;50.150;8.568;2022-08-01T13:01:08;4.10;;;1.60;;
14078;SDS011;7115;50.150;8.568;2022-08-01T13:03:36;2.20;;;1.60;;
14078;SDS011;7115;50.150;8.568;2022-08-01T13:06:14;3.27;;;1.57;;
14078;SDS011;7115;50.150;8.568;2022-08-01T13:08:43;1.90;;;1.70;;
14078;SDS011;7115;50.150;8.568;2022-08-01T13:11:11;2.70;;;1.70;;
14078;SDS011;7115;50.150;8.568;2022-08-01T13:13:48;2.97;;;1.60;;
14078;SDS011;7115;50.150;8.568;2022-08-01T13:16:23;1.73;;;1.50;;
14078;SDS011;7115;50.150;8.568;2022-08-01T13:19:11;2.53;;;1.43;;
14078;SDS011;7115;50.150;8.568;2022-08-01T13:21:38;1.50;;;1.40;;
14078;SDS011;7115;50.150;8.568;2022-08-01T13:24:29;2.23;;;1.57;;
14078;SDS011;7115;50.150;8.568;2022-08-01T13:26:56;2.77;;;1.57;;
14078;SDS011;7115;50.150;8.568;2022-08-01T13:31:56;1.67;;;1.57;;
14078;SDS011;7115;50.150;8.568;2022-08-01T13:34:29;2.30;;;1.50;;
14078;SDS011;7115;50.150;8.568;2022-08-01T13:37:00;3.80;;;1.50;;
14078;SDS011;7115;50.150;8.568;2022-08-01T13:39:30;2.67;;;1.40;;
14078;SDS011;7115;50.150;8.568;2022-08-01T13:42:10;2.20;;;1.63;;
14078;SDS011;7115;50.150;8.568;2022-08-01T13:44:44;1.70;;;1.60;;
14078;SDS011;7115;50.150;8.568;2022-08-01T13:47:11;1.60;;;1.50;;
14078;SDS011;7115;50.150;8.568;2022-08-01T13:49:41;1.63;;;1.53;;
14078;SDS011;7115;50.150;8.568;2022-08-01T13:52:08;3.23;;;1.87;;
14078;SDS011;7115;50.150;8.568;2022-08-01T13:54:35;1.93;;;1.60;;
14078;SDS011;7115;50.150;8.568;2022-08-01T13:57:02;3.10;;;1.70;;
14078;SDS011;7115;50.150;8.568;2022-08-01T13:59:29;2.13;;;1.67;;
14078;SDS011;7115;50.150;8.568;2022-08-01T14:01:56;3.97;;;2.10;;
14078;SDS011;7115;50.150;8.568;2022-08-01T14:04:23;4.50;;;1.83;;
14078;SDS011;7115;50.150;8.568;2022-08-01T14:06:50;3.10;;;1.90;;
14078;SDS011;7115;50.150;8.568;2022-08-01T14:09:16;4.47;;;2.07;;
14078;SDS011;7115;50.150;8.568;2022-08-01T14:11:49;2.10;;;1.90;;
14078;SDS011;7115;50.150;8.568;2022-08-01T14:14:17;5.73;;;2.80;;
14078;SDS011;7115;50.150;8.568;2022-08-01T14:16:43;3.53;;;1.80;;
14078;SDS011;7115;50.150;8.568;2022-08-01T14:19:13;2.37;;;1.63;;
14078;SDS011;7115;50.150;8.568;2022-08-01T14:21:44;2.03;;;1.70;;
14078;SDS011;7115;50.150;8.568;2022-08-01T14:24:11;2.10;;;1.73;;
14078;SDS011;7115;50.150;8.568;2022-08-01T14:26:37;2.60;;;1.83;;
14078;SDS011;7115;50.150;8.568;2022-08-01T14:29:04;2.70;;;1.70;;
14078;SDS011;7115;50.150;8.568;2022-08-01T14:31:31;2.73;;;1.70;;
14078;SDS011;7115;50.150;8.568;2022-08-01T14:33:59;2.60;;;1.77;;
14078;SDS011;7115;50.150;8.568;2022-08-01T14:36:26;6.77;;;1.67;;
14078;SDS011;7115;50.150;8.568;2022-08-01T14:38:56;2.03;;;1.83;;
14078;SDS011;7115;50.150;8.568;2022-08-01T14:41:25;4.43;;;1.70;;
14078;SDS011;7115;50.150;8.568;2022-08-01T14:43:53;2.27;;;1.90;;
14078;SDS011;7115;50.150;8.568;2022-08-01T14:46:19;2.80;;;2.07;;
14078;SDS011;7115;50.150;8.568;2022-08-01T14:48:46;2.20;;;2.00;;
14078;SDS011;7115;50.150;8.568;2022-08-01T14:51:13;2.77;;;1.90;;
14078;SDS011;7115;50.150;8.568;2022-08-01T14:53:40;5.53;;;1.93;;
14078;SDS011;7115;50.150;8.568;2022-08-01T14:56:15;2.13;;;1.77;;
14078;SDS011;7115;50.150;8.568;2022-08-01T14:58:43;3.57;;;1.67;;
14078;SDS011;7115;50.150;8.568;2022-08-01T15:01:10;3.57;;;1.90;;
14078;SDS011;7115;50.150;8.568;2022-08-01T15:03:37;3.10;;;2.20;;
14078;SDS011;7115;50.150;8.568;2022-08-01T15:06:04;1.77;;;1.53;;
14078;SDS011;7115;50.150;8.568;2022-08-01T15:08:32;2.10;;;1.90;;
14078;SDS011;7115;50.150;8.568;2022-08-01T15:10:59;2.03;;;1.90;;
14078;SDS011;7115;50.150;8.568;2022-08-01T15:13:27;2.40;;;2.10;;
14078;SDS011;7115;50.150;8.568;2022-08-01T15:15:54;2.90;;;2.10;;
14078;SDS011;7115;50.150;8.568;2022-08-01T15:18:25;1.83;;;1.70;;
14078;SDS011;7115;50.150;8.568;2022-08-01T15:20:55;2.53;;;2.20;;
14078;SDS011;7115;50.150;8.568;2022-08-01T15:23:23;2.63;;;1.80;;
14078;SDS011;7115;50.150;8.568;2022-08-01T15:25:50;2.37;;;2.00;;
14078;SDS011;7115;50.150;8.568;2022-08-01T15:28:16;2.83;;;2.17;;
14078;SDS011;7115;50.150;8.568;2022-08-01T15:30:43;2.20;;;1.70;;
14078;SDS011;7115;50.150;8.568;2022-08-01T15:33:11;4.13;;;1.83;;
14078;SDS011;7115;50.150;8.568;2022-08-01T15:35:38;2.23;;;1.90;;
14078;SDS011;7115;50.150;8.568;2022-08-01T15:38:05;2.50;;;1.90;;
14078;SDS011;7115;50.150;8.568;2022-08-01T15:40:32;2.33;;;1.73;;
14078;SDS011;7115;50.150;8.568;2022-08-01T15:43:01;1.80;;;1.60;;
14078;SDS011;7115;50.150;8.568;2022-08-01T15:45:28;2.30;;;1.90;;
14078;SDS011;7115;50.150;8.568;2022-08-01T15:48:12;2.13;;;1.93;;
14078;SDS011;7115;50.150;8.568;2022-08-01T15:50:39;1.67;;;1.57;;
14078;SDS011;7115;50.150;8.568;2022-08-01T15:53:06;2.77;;;1.93;;
14078;SDS011;7115;50.150;8.568;2022-08-01T15:55:36;2.53;;;1.70;;
14078;SDS011;7115;50.150;8.568;2022-08-01T15:58:03;3.33;;;1.70;;
14078;SDS011;7115;50.150;8.568;2022-08-01T16:00:31;3.20;;;1.70;;
14078;SDS011;7115;50.150;8.568;2022-08-01T16:03:04;2.13;;;1.60;;
14078;SDS011;7115;50.150;8.568;2022-08-01T16:05:31;2.97;;;1.60;;